Terminal Aerodrome Forecast
Issued by NWS

Home | Current Version | Previous Version | Text Only | Print | Product List | Glossary On
Versions: 1 2 3 4 5 6 7 8 9 10 11 12 13 14 15 16 17 18 19 20 21
000
FTAK31 PAFA 252055 AAB
TAFAFA
TAF AMD
PAFA 252055Z 2521/2624 06005KT P6SM BKN010 BKN040
     FM252300 VRB04KT 6SM -SHSN SCT020 SCT050 BKN100
     FM260500 VRB04KT P6SM FEW050 SCT100 BKN200=

USA.gov is the U.S. government's official web portal to all federal, state and local government web resources and services.